createdAt,value
2023-05-14T00:01:14.046Z,13.18
2023-05-14T00:03:42.057Z,11.57
2023-05-14T00:06:12.175Z,13.63
2023-05-14T00:08:40.356Z,13.18
2023-05-14T00:11:09.682Z,15.20
2023-05-14T00:13:37.861Z,14.55
2023-05-14T00:16:06.601Z,13.07
2023-05-14T00:18:34.544Z,14.38
2023-05-14T00:21:02.835Z,14.68
2023-05-14T00:23:32.333Z,13.50
2023-05-14T00:26:00.564Z,13.68
2023-05-14T00:28:28.572Z,13.57
2023-05-14T00:30:57.351Z,13.27
2023-05-14T00:33:25.711Z,13.73
2023-05-14T00:35:54.241Z,15.75
2023-05-14T00:38:24.309Z,13.90
2023-05-14T00:40:53.841Z,14.98
2023-05-14T00:43:24.344Z,14.15
2023-05-14T00:45:53.943Z,14.30
2023-05-14T00:48:23.071Z,13.80
2023-05-14T00:50:53.150Z,12.93
2023-05-14T00:53:22.242Z,13.40
2023-05-14T00:55:51.177Z,12.23
2023-05-14T00:58:21.322Z,12.27
2023-05-14T01:00:50.185Z,12.95
2023-05-14T01:03:18.363Z,13.40
2023-05-14T01:05:58.670Z,12.90
2023-05-14T01:08:34.172Z,14.38
2023-05-14T01:11:08.215Z,13.70
2023-05-14T01:13:55.373Z,16.38
2023-05-14T01:16:28.332Z,15.40
2023-05-14T01:18:58.415Z,13.65
2023-05-14T01:21:37.682Z,13.40
2023-05-14T01:24:06.387Z,13.90
2023-05-14T01:26:34.835Z,15.48
2023-05-14T01:29:12.530Z,14.10
2023-05-14T01:31:44.391Z,13.68
2023-05-14T01:34:13.849Z,13.95
2023-05-14T01:36:45.621Z,12.85
2023-05-14T01:39:16.806Z,12.95
2023-05-14T01:41:46.390Z,15.70
2023-05-14T01:44:14.565Z,13.55
2023-05-14T01:46:42.954Z,13.68
2023-05-14T01:49:11.044Z,12.93
2023-05-14T01:51:39.295Z,13.23
2023-05-14T01:54:08.842Z,14.23
2023-05-14T01:56:37.028Z,13.98
2023-05-14T01:59:05.363Z,14.18
2023-05-14T02:01:34.173Z,13.90
2023-05-14T02:04:02.779Z,13.02
2023-05-14T02:06:31.706Z,12.82
2023-05-14T02:08:59.821Z,12.20
2023-05-14T02:11:29.222Z,13.05
2023-05-14T02:13:57.194Z,14.65
2023-05-14T02:16:25.906Z,15.43
2023-05-14T02:18:54.685Z,13.35
2023-05-14T02:21:23.225Z,12.95
2023-05-14T02:23:51.636Z,14.10
2023-05-14T02:26:20.306Z,13.23
2023-05-14T02:28:49.916Z,13.70
2023-05-14T02:31:19.576Z,12.88
2023-05-14T02:33:47.978Z,14.50
2023-05-14T02:36:16.127Z,14.35
2023-05-14T02:38:44.748Z,15.00
2023-05-14T02:41:12.886Z,13.35
2023-05-14T02:43:41.382Z,12.73
2023-05-14T02:46:10.911Z,13.68
2023-05-14T02:48:39.050Z,15.50
2023-05-14T02:51:09.514Z,17.42
2023-05-14T02:53:37.569Z,15.13
2023-05-14T02:56:06.828Z,15.88
2023-05-14T02:58:35.693Z,13.63
2023-05-14T03:01:04.079Z,15.10
2023-05-14T03:03:34.370Z,14.95
2023-05-14T03:06:02.850Z,12.35
2023-05-14T03:08:31.899Z,11.05
2023-05-14T03:11:00.192Z,13.05
2023-05-14T03:13:28.506Z,14.02
2023-05-14T03:15:58.152Z,13.75
2023-05-14T03:18:28.694Z,14.02
2023-05-14T03:20:58.432Z,12.57
2023-05-14T03:23:31.210Z,15.55
2023-05-14T03:25:59.505Z,14.80
2023-05-14T03:28:27.728Z,15.98
2023-05-14T03:30:55.968Z,14.05
2023-05-14T03:33:25.053Z,11.07
2023-05-14T03:35:53.717Z,14.48
2023-05-14T03:38:24.228Z,12.02
2023-05-14T03:40:52.782Z,14.20
2023-05-14T03:43:20.900Z,14.70
2023-05-14T03:45:52.706Z,16.63
2023-05-14T03:48:21.473Z,14.70
2023-05-14T03:50:50.053Z,14.02
2023-05-14T03:53:18.398Z,16.52
2023-05-14T03:55:49.203Z,15.23
2023-05-14T03:58:19.767Z,16.58
2023-05-14T04:00:47.815Z,14.55
2023-05-14T04:03:16.354Z,14.57
2023-05-14T04:05:44.486Z,15.90
2023-05-14T04:08:12.814Z,15.63
2023-05-14T04:10:40.866Z,16.60
2023-05-14T04:13:11.273Z,16.60
2023-05-14T04:15:41.311Z,16.38
2023-05-14T04:18:09.337Z,16.50
2023-05-14T04:20:38.052Z,17.27
2023-05-14T04:23:06.680Z,15.98
2023-05-14T04:25:34.873Z,18.63
2023-05-14T04:28:02.965Z,18.00
2023-05-14T04:30:32.895Z,17.98
2023-05-14T04:33:01.416Z,17.50
2023-05-14T04:35:29.881Z,16.25
2023-05-14T04:37:58.676Z,17.23
2023-05-14T04:40:27.084Z,18.20
2023-05-14T04:42:55.722Z,19.00
2023-05-14T04:45:24.003Z,19.25
2023-05-14T04:47:54.243Z,18.00
2023-05-14T04:50:26.907Z,18.50
2023-05-14T04:52:55.915Z,17.98
2023-05-14T04:55:24.318Z,16.88
2023-05-14T04:57:52.899Z,16.95
2023-05-14T05:00:22.477Z,16.98
2023-05-14T05:02:50.841Z,16.70
2023-05-14T05:05:20.768Z,15.93
2023-05-14T05:07:49.226Z,16.67
2023-05-14T05:10:17.655Z,16.50
2023-05-14T05:12:45.700Z,15.98
2023-05-14T05:15:14.152Z,16.27
2023-05-14T05:17:43.050Z,16.85
2023-05-14T05:20:12.253Z,17.35
2023-05-14T05:22:41.672Z,15.23
2023-05-14T05:25:12.491Z,15.68
2023-05-14T05:27:40.757Z,16.35
2023-05-14T05:30:10.118Z,17.58
2023-05-14T05:32:39.081Z,16.83
2023-05-14T05:35:08.445Z,17.85
2023-05-14T05:37:36.971Z,19.33
2023-05-14T05:40:09.268Z,16.25
2023-05-14T05:42:37.486Z,16.00
2023-05-14T05:45:07.585Z,15.35
2023-05-14T05:47:35.700Z,14.68
2023-05-14T05:50:03.952Z,15.45
2023-05-14T05:52:32.455Z,14.13
2023-05-14T05:55:01.410Z,13.75
2023-05-14T05:57:31.109Z,14.88
2023-05-14T05:59:59.310Z,14.48
2023-05-14T06:02:27.669Z,13.10
2023-05-14T06:04:55.991Z,15.30
2023-05-14T06:07:24.425Z,13.35
2023-05-14T06:09:52.644Z,14.25
2023-05-14T06:12:21.941Z,14.23
2023-05-14T06:14:51.625Z,14.02
2023-05-14T06:17:19.836Z,13.15
2023-05-14T06:19:48.250Z,13.80
2023-05-14T06:22:16.475Z,13.05
2023-05-14T06:24:45.028Z,14.13
2023-05-14T06:27:13.490Z,11.70
2023-05-14T06:29:41.917Z,10.68
2023-05-14T06:32:15.941Z,11.13
2023-05-14T06:34:44.498Z,9.27
2023-05-14T06:37:12.825Z,9.55
2023-05-14T06:39:46.978Z,8.90
2023-05-14T06:42:15.927Z,9.05
2023-05-14T06:44:44.619Z,8.63
2023-05-14T06:47:14.266Z,8.52
2023-05-14T06:49:46.035Z,10.10
2023-05-14T06:52:14.252Z,10.13
2023-05-14T06:54:42.351Z,9.18
2023-05-14T06:57:10.917Z,8.82
2023-05-14T06:59:39.337Z,8.63
2023-05-14T07:02:08.737Z,9.15
2023-05-14T07:04:38.638Z,8.80
2023-05-14T07:07:07.153Z,7.93
2023-05-14T07:09:35.273Z,9.00
2023-05-14T07:12:03.723Z,7.70
2023-05-14T07:14:32.776Z,6.90
2023-05-14T07:17:01.691Z,6.85
2023-05-14T07:19:30.377Z,7.88
2023-05-14T07:22:00.388Z,7.47
2023-05-14T07:24:29.015Z,8.93
2023-05-14T07:26:57.784Z,8.38
2023-05-14T07:29:26.174Z,8.65
2023-05-14T07:31:54.404Z,9.30
2023-05-14T07:34:25.888Z,7.10
2023-05-14T07:36:54.592Z,9.75
2023-05-14T07:39:24.199Z,7.95
2023-05-14T07:41:54.814Z,7.90
2023-05-14T07:44:22.795Z,7.18
2023-05-14T07:46:50.789Z,8.32
2023-05-14T07:49:19.155Z,7.80
2023-05-14T07:51:47.700Z,8.05
2023-05-14T07:54:16.306Z,7.13
2023-05-14T07:56:46.138Z,7.38
2023-05-14T07:59:14.391Z,7.97
2023-05-14T08:01:43.157Z,7.75
2023-05-14T08:04:12.299Z,8.32
2023-05-14T08:06:40.951Z,7.45
2023-05-14T08:09:09.841Z,8.88
2023-05-14T08:11:39.233Z,8.65
2023-05-14T08:14:09.148Z,7.95
2023-05-14T08:16:37.389Z,8.10
2023-05-14T08:19:06.376Z,7.50
2023-05-14T08:21:34.900Z,6.57
2023-05-14T08:24:03.258Z,6.90
2023-05-14T08:26:31.501Z,6.40
2023-05-14T08:29:00.320Z,6.00
2023-05-14T08:31:30.147Z,6.18
2023-05-14T08:33:58.631Z,5.88
2023-05-14T08:36:27.296Z,4.70
2023-05-14T08:38:56.698Z,5.70
2023-05-14T08:41:25.070Z,5.80
2023-05-14T08:44:04.234Z,6.55
2023-05-14T08:46:35.040Z,5.95
2023-05-14T08:49:12.871Z,6.32
2023-05-14T08:51:41.529Z,6.53
2023-05-14T08:54:10.100Z,6.45
2023-05-14T08:56:40.230Z,6.18
2023-05-14T08:59:08.432Z,6.00
2023-05-14T09:01:39.889Z,6.25
2023-05-14T09:04:09.712Z,5.05
2023-05-14T09:06:38.963Z,5.72
2023-05-14T09:09:07.274Z,5.50
2023-05-14T09:11:35.612Z,6.35
2023-05-14T09:14:04.341Z,6.10
2023-05-14T09:16:33.046Z,5.93
2023-05-14T09:19:04.163Z,6.03
2023-05-14T09:21:33.591Z,5.25
2023-05-14T09:24:02.665Z,5.30
2023-05-14T09:26:34.479Z,6.00
2023-05-14T09:29:04.333Z,5.90
2023-05-14T09:31:33.969Z,5.35
2023-05-14T09:34:05.017Z,5.93
2023-05-14T09:36:35.657Z,5.28
2023-05-14T09:39:05.414Z,4.70
2023-05-14T09:41:33.434Z,5.00
2023-05-14T09:44:03.022Z,5.38
2023-05-14T09:46:32.331Z,5.65
2023-05-14T09:49:00.835Z,6.15
2023-05-14T09:51:33.293Z,5.50
2023-05-14T09:54:02.183Z,5.35
2023-05-14T09:56:30.882Z,5.20
2023-05-14T09:58:59.997Z,5.35
2023-05-14T10:01:30.055Z,5.88
2023-05-14T10:04:00.606Z,4.72
2023-05-14T10:06:32.198Z,5.35
2023-05-14T10:09:04.045Z,5.43
2023-05-14T10:11:34.422Z,5.00
2023-05-14T10:14:07.710Z,5.05
2023-05-14T10:16:39.548Z,5.68
2023-05-14T10:19:11.241Z,5.57
2023-05-14T10:21:42.122Z,5.60
2023-05-14T10:24:13.059Z,4.93
2023-05-14T10:26:42.678Z,6.00
2023-05-14T10:29:11.512Z,5.28
2023-05-14T10:31:49.995Z,5.00
2023-05-14T10:34:37.957Z,5.45
2023-05-14T10:37:07.670Z,5.03
2023-05-14T10:39:46.403Z,5.45
2023-05-14T10:42:18.396Z,6.25
2023-05-14T10:44:52.470Z,5.43
2023-05-14T10:47:21.461Z,4.82
2023-05-14T10:49:50.676Z,4.95
2023-05-14T10:52:22.660Z,5.13
2023-05-14T10:54:54.406Z,5.00
2023-05-14T10:57:24.756Z,4.63
2023-05-14T10:59:58.906Z,5.75
2023-05-14T11:02:30.376Z,5.25
2023-05-14T11:05:03.807Z,5.88
2023-05-14T11:07:33.867Z,5.35
2023-05-14T11:10:07.000Z,7.28
2023-05-14T11:12:36.770Z,5.85
2023-05-14T11:15:07.754Z,5.78
2023-05-14T11:17:37.107Z,9.15
2023-05-14T11:20:07.334Z,5.63
2023-05-14T11:22:35.666Z,5.43
2023-05-14T11:25:06.849Z,9.82
2023-05-14T11:27:36.012Z,13.95
2023-05-14T11:30:05.626Z,8.63
2023-05-14T11:32:36.117Z,7.82
2023-05-14T11:35:05.011Z,6.22
2023-05-14T11:37:32.970Z,7.15
2023-05-14T11:40:02.631Z,6.22
2023-05-14T11:42:32.988Z,11.48
2023-05-14T11:45:01.408Z,6.20
2023-05-14T11:47:31.062Z,9.23
2023-05-14T11:50:00.692Z,6.20
2023-05-14T11:52:29.198Z,6.85
2023-05-14T11:54:57.710Z,6.10
2023-05-14T11:57:26.435Z,5.97
2023-05-14T11:59:59.014Z,6.07
2023-05-14T12:02:29.176Z,5.43
2023-05-14T12:04:57.892Z,5.82
2023-05-14T12:07:30.884Z,5.85
2023-05-14T12:10:02.616Z,7.28
2023-05-14T12:12:36.776Z,5.43
2023-05-14T12:15:14.231Z,5.93
2023-05-14T12:17:42.365Z,4.82
2023-05-14T12:20:20.794Z,7.53
2023-05-14T12:22:49.097Z,9.15
2023-05-14T12:25:17.516Z,5.20
2023-05-14T12:27:46.718Z,4.90
2023-05-14T12:30:34.303Z,5.97
2023-05-14T12:33:02.619Z,4.90
2023-05-14T12:35:32.484Z,5.55
2023-05-14T12:38:00.706Z,6.53
2023-05-14T12:40:28.976Z,6.30
2023-05-14T12:42:57.109Z,5.78
2023-05-14T12:45:26.920Z,6.68
2023-05-14T12:47:56.183Z,6.95
2023-05-14T12:50:26.156Z,6.32
2023-05-14T12:52:54.817Z,7.38
2023-05-14T12:55:24.577Z,7.38
2023-05-14T12:57:52.815Z,6.97
2023-05-14T13:00:21.429Z,7.90
2023-05-14T13:02:51.418Z,6.65
2023-05-14T13:05:19.879Z,7.03
2023-05-14T13:07:47.934Z,6.63
2023-05-14T13:10:18.710Z,9.68
2023-05-14T13:12:47.468Z,10.57
2023-05-14T13:15:16.030Z,10.02
2023-05-14T13:17:44.472Z,8.55
2023-05-14T13:20:15.414Z,6.95
2023-05-14T13:22:43.767Z,7.50
2023-05-14T13:25:11.920Z,6.30
2023-05-14T13:27:41.126Z,7.97
2023-05-14T13:30:10.067Z,7.53
2023-05-14T13:32:40.764Z,8.82
2023-05-14T13:35:10.773Z,8.50
2023-05-14T13:37:41.090Z,11.10
2023-05-14T13:40:11.132Z,9.27
2023-05-14T13:42:40.756Z,8.15
2023-05-14T13:45:09.973Z,7.38
2023-05-14T13:47:38.884Z,8.38
2023-05-14T13:50:09.351Z,7.40
2023-05-14T13:52:39.148Z,7.60
2023-05-14T13:55:12.219Z,7.43
2023-05-14T13:57:41.887Z,6.95
2023-05-14T14:00:11.191Z,6.90
2023-05-14T14:02:40.132Z,6.70
2023-05-14T14:05:09.319Z,6.68
2023-05-14T14:07:37.653Z,6.97
2023-05-14T14:10:06.608Z,6.68
2023-05-14T14:12:36.750Z,8.45
2023-05-14T14:15:07.305Z,7.10
2023-05-14T14:17:36.930Z,6.90
2023-05-14T14:20:06.621Z,6.70
2023-05-14T14:22:34.898Z,7.68
2023-05-14T14:25:03.454Z,7.88
2023-05-14T14:27:34.107Z,7.25
2023-05-14T14:30:04.355Z,8.05
2023-05-14T14:32:33.580Z,7.88
2023-05-14T14:35:01.686Z,7.78
2023-05-14T14:37:29.858Z,7.45
2023-05-14T14:39:58.489Z,9.68
2023-05-14T14:42:26.733Z,8.07
2023-05-14T14:44:54.785Z,9.70
2023-05-14T14:47:24.692Z,10.73
2023-05-14T14:49:55.033Z,9.43
2023-05-14T14:52:23.523Z,11.63
2023-05-14T14:54:51.923Z,7.50
2023-05-14T14:57:20.189Z,7.65
2023-05-14T14:59:48.792Z,7.80
2023-05-14T15:02:17.266Z,6.55
2023-05-14T15:04:46.746Z,8.15
2023-05-14T15:07:17.523Z,8.68
2023-05-14T15:09:45.782Z,8.15
2023-05-14T15:12:14.293Z,6.78
2023-05-14T15:14:42.596Z,7.78
2023-05-14T15:17:11.115Z,8.07
2023-05-14T15:19:39.443Z,8.35
2023-05-14T15:22:08.854Z,9.10
2023-05-14T15:24:37.640Z,7.68
2023-05-14T15:27:06.108Z,7.70
2023-05-14T15:29:34.515Z,8.18
2023-05-14T15:32:03.622Z,8.07
2023-05-14T15:34:31.674Z,8.63
2023-05-14T15:36:59.855Z,7.97
2023-05-14T15:39:32.935Z,7.43
2023-05-14T15:42:01.509Z,6.90
2023-05-14T15:44:29.977Z,6.97
2023-05-14T15:46:58.240Z,7.75
2023-05-14T15:49:26.644Z,7.22
2023-05-14T15:51:55.838Z,7.55
2023-05-14T15:54:26.286Z,8.02
2023-05-14T15:56:57.192Z,8.30
2023-05-14T15:59:25.671Z,7.82
2023-05-14T16:01:53.893Z,7.93
2023-05-14T16:04:22.437Z,7.60
2023-05-14T16:06:50.705Z,8.38
2023-05-14T16:09:19.930Z,7.85
2023-05-14T16:11:48.850Z,7.28
2023-05-14T16:14:18.666Z,6.57
2023-05-14T16:16:47.364Z,5.53
2023-05-14T16:19:16.069Z,5.57
2023-05-14T16:21:45.054Z,5.95
2023-05-14T16:24:13.846Z,6.78
2023-05-14T16:36:09.050Z,6.45
2023-05-14T16:38:44.615Z,6.00
2023-05-14T16:41:21.687Z,6.00
2023-05-14T16:43:51.168Z,6.40
2023-05-14T16:46:20.363Z,6.28
2023-05-14T16:48:50.691Z,5.70
2023-05-14T16:51:20.342Z,5.97
2023-05-14T16:53:48.689Z,5.88
2023-05-14T16:56:17.036Z,4.75
2023-05-14T16:58:45.301Z,5.70
2023-05-14T17:01:13.841Z,5.00
2023-05-14T17:03:42.168Z,5.18
2023-05-14T17:06:11.468Z,5.68
2023-05-14T17:08:40.975Z,5.45
2023-05-14T17:11:09.738Z,4.90
2023-05-14T17:13:37.682Z,4.93
2023-05-14T17:16:05.986Z,5.78
2023-05-14T17:18:34.226Z,5.57
2023-05-14T17:21:03.424Z,5.32
2023-05-14T17:23:31.809Z,4.72
2023-05-14T17:26:01.458Z,4.47
2023-05-14T17:28:30.098Z,5.10
2023-05-14T17:30:58.474Z,4.68
2023-05-14T17:33:26.669Z,4.60
2023-05-14T17:35:54.892Z,4.53
2023-05-14T17:38:23.187Z,4.35
2023-05-14T17:40:51.511Z,4.47
2023-05-14T17:43:21.168Z,3.95
2023-05-14T17:45:54.560Z,4.18
2023-05-14T17:48:23.975Z,4.47
2023-05-14T17:50:55.889Z,4.15
2023-05-14T17:53:24.061Z,4.55
2023-05-14T17:55:52.503Z,4.70
2023-05-14T17:58:22.047Z,4.75
2023-05-14T18:00:50.832Z,4.43
2023-05-14T18:03:20.417Z,4.32
2023-05-14T18:05:48.627Z,4.30
2023-05-14T18:08:16.999Z,4.93
2023-05-14T18:10:45.597Z,5.22
2023-05-14T18:13:14.222Z,4.47
2023-05-14T18:19:26.391Z,4.15
2023-05-14T18:21:55.646Z,4.60
2023-05-14T18:24:23.935Z,4.53
2023-05-14T18:26:52.316Z,3.92
2023-05-14T18:29:20.657Z,3.92
2023-05-14T18:31:50.238Z,4.70
2023-05-14T18:34:18.500Z,3.95
2023-05-14T18:36:47.486Z,4.45
2023-05-14T18:39:15.723Z,4.05
2023-05-14T18:41:43.752Z,3.90
2023-05-14T18:44:11.922Z,4.13
2023-05-14T18:46:40.416Z,4.40
2023-05-14T18:49:09.850Z,3.95
2023-05-14T18:51:38.170Z,4.13
2023-05-14T18:54:06.290Z,4.45
2023-05-14T18:56:35.021Z,4.88
2023-05-14T18:59:04.382Z,4.60
2023-05-14T19:01:33.974Z,4.30
2023-05-14T19:04:04.585Z,4.47
2023-05-14T19:06:34.814Z,3.40
2023-05-14T19:09:02.931Z,3.88
2023-05-14T19:11:31.198Z,3.42
2023-05-14T19:14:00.048Z,3.75
2023-05-14T19:16:28.417Z,3.63
2023-05-14T19:18:56.547Z,4.10
2023-05-14T19:21:24.645Z,3.70
2023-05-14T19:23:55.204Z,3.35
2023-05-14T19:26:23.347Z,4.10
2023-05-14T19:28:52.786Z,3.78
2023-05-14T19:31:20.957Z,3.20
2023-05-14T19:33:49.089Z,4.40
2023-05-14T19:36:17.327Z,3.63
2023-05-14T19:38:45.738Z,3.42
2023-05-14T19:41:15.775Z,3.53
2023-05-14T19:43:43.781Z,3.30
2023-05-14T19:46:11.939Z,3.78
2023-05-14T19:48:41.191Z,3.90
2023-05-14T19:51:09.250Z,3.60
2023-05-14T19:54:44.966Z,3.40
2023-05-14T19:57:15.261Z,3.75
2023-05-14T19:59:44.537Z,2.95
2023-05-14T20:02:18.546Z,3.72
2023-05-14T20:09:36.866Z,3.85
2023-05-14T20:12:06.028Z,3.70
2023-05-14T20:14:36.002Z,4.45
2023-05-14T20:17:04.707Z,4.25
2023-05-14T20:19:33.473Z,4.47
2023-05-14T20:22:01.883Z,3.60
2023-05-14T20:24:30.138Z,4.55
2023-05-14T20:26:58.844Z,4.43
2023-05-14T20:29:27.300Z,4.78
2023-05-14T20:31:57.285Z,5.05
2023-05-14T20:34:25.701Z,4.75
2023-05-14T20:36:58.699Z,4.43
2023-05-14T20:39:27.299Z,4.30
2023-05-14T20:41:55.547Z,4.32
2023-05-14T20:44:23.714Z,4.45
2023-05-14T20:46:52.910Z,3.30
2023-05-14T20:49:22.658Z,3.50
2023-05-14T20:51:50.983Z,3.90
2023-05-14T20:54:19.400Z,4.60
2023-05-14T20:56:47.813Z,4.68
2023-05-14T20:59:16.249Z,4.35
2023-05-14T21:01:44.990Z,3.80
2023-05-14T21:04:13.831Z,5.50
2023-05-14T21:06:43.971Z,4.20
2023-05-14T21:09:12.654Z,3.95
2023-05-14T21:11:41.640Z,4.20
2023-05-14T21:14:10.086Z,4.20
2023-05-14T21:16:38.404Z,4.78
2023-05-14T21:19:07.210Z,4.38
2023-05-14T21:21:35.738Z,4.10
2023-05-14T21:24:06.212Z,4.28
2023-05-14T21:26:37.075Z,4.18
2023-05-14T21:29:05.362Z,5.15
2023-05-14T21:31:33.672Z,4.75
2023-05-14T21:34:02.634Z,4.15
2023-05-14T21:36:31.440Z,4.60
2023-05-14T21:38:59.801Z,4.72
2023-05-14T21:41:29.503Z,4.72
2023-05-14T21:43:57.973Z,4.60
2023-05-14T21:46:26.380Z,5.13
2023-05-14T21:48:54.487Z,4.93
2023-05-14T21:51:22.815Z,4.47
2023-05-14T21:53:51.416Z,4.50
2023-05-14T21:56:19.729Z,3.80
2023-05-14T21:58:49.459Z,4.50
2023-05-14T22:01:18.065Z,4.22
2023-05-14T22:03:46.494Z,4.15
2023-05-14T22:06:15.642Z,4.50
2023-05-14T22:08:43.832Z,4.57
2023-05-14T22:11:12.237Z,4.80
2023-05-14T22:13:41.203Z,5.13
2023-05-14T22:16:13.769Z,4.70
2023-05-14T22:18:42.733Z,4.15
2023-05-14T22:21:10.693Z,4.70
2023-05-14T22:23:39.489Z,5.07
2023-05-14T22:26:07.668Z,4.65
2023-05-14T22:28:36.835Z,4.80
2023-05-14T22:31:05.604Z,5.32
2023-05-14T22:33:35.419Z,4.95
2023-05-14T22:36:03.836Z,6.10
2023-05-14T22:38:32.452Z,6.70
2023-05-14T22:41:01.109Z,6.05
2023-05-14T22:43:30.646Z,6.05
2023-05-14T22:45:59.021Z,6.38
2023-05-14T22:48:28.195Z,6.47
2023-05-14T22:50:58.416Z,6.13
2023-05-14T22:53:26.757Z,5.55
2023-05-14T22:55:55.139Z,7.18
2023-05-14T22:58:23.636Z,6.45
2023-05-14T23:00:52.111Z,5.55
2023-05-14T23:03:20.818Z,6.90
2023-05-14T23:05:49.466Z,6.40
2023-05-14T23:08:19.182Z,6.75
2023-05-14T23:10:47.613Z,6.28
2023-05-14T23:13:15.754Z,5.60
2023-05-14T23:15:45.333Z,6.20
2023-05-14T23:18:14.128Z,7.10
2023-05-14T23:20:42.702Z,5.80
2023-05-14T23:23:10.917Z,6.35
2023-05-14T23:25:42.116Z,5.22
2023-05-14T23:28:10.909Z,5.40
2023-05-14T23:30:39.152Z,5.18
2023-05-14T23:33:07.409Z,5.80
2023-05-14T23:35:37.058Z,5.30
2023-05-14T23:38:05.736Z,5.90
2023-05-14T23:40:34.443Z,4.25
2023-05-14T23:43:03.942Z,4.95
2023-05-14T23:45:33.209Z,5.32
2023-05-14T23:48:03.101Z,5.03
2023-05-14T23:50:31.795Z,5.65
2023-05-14T23:53:00.322Z,5.15
2023-05-14T23:55:28.987Z,5.00
2023-05-14T23:57:57.391Z,4.10
